Time;durP1;ratioP1;P1;durP2;ratioP2;P2;SDS_P1;SDS_P2;PMS_P1;PMS_P2;Temp;Humidity;BMP_temperature;BMP_pressure;BME280_temperature;BME280_humidity;BME280_pressure;Samples;Min_cycle;Max_cycle;Signal;HPM_P1;HPM_P2
2021/08/07 00:01:21;;;;;;;3.72;1.17;;;16.90;83.50;;;;;;5086462;28;20372;-77
2021/08/07 00:03:47;;;;;;;3.53;1.40;;;16.90;83.50;;;;;;5070870;28;20852;-80
2021/08/07 00:06:12;;;;;;;2.60;1.17;;;16.80;83.40;;;;;;5070594;28;20405;-76
2021/08/07 00:08:38;;;;;;;10.25;2.00;;;16.90;83.70;;;;;;5070756;28;20402;-76
2021/08/07 00:11:03;;;;;;;5.20;1.70;;;16.90;83.40;;;;;;5086597;28;20376;-76
2021/08/07 00:13:29;;;;;;;2.40;1.10;;;16.90;83.30;;;;;;5070977;28;20460;-78
2021/08/07 00:15:54;;;;;;;1.23;1.00;;;16.80;83.60;;;;;;5070988;28;20395;-77
2021/08/07 00:18:20;;;;;;;5.00;1.30;;;16.80;83.30;;;;;;5086364;28;20399;-76
2021/08/07 00:20:46;;;;;;;6.22;1.25;;;16.80;83.40;;;;;;5071120;28;20385;-77
2021/08/07 00:23:12;;;;;;;3.40;1.20;;;16.80;83.40;;;;;;5070831;28;20375;-76
2021/08/07 00:25:37;;;;;;;1.70;1.00;;;16.80;83.40;;;;;;5070710;28;20376;-78
2021/08/07 00:28:03;;;;;;;1.77;1.13;;;16.80;83.50;;;;;;5070739;28;20391;-78
2021/08/07 00:30:29;;;;;;;3.17;1.27;;;16.80;83.60;;;;;;5086126;28;20387;-77
2021/08/07 00:32:54;;;;;;;2.28;1.00;;;16.80;83.40;;;;;;5070576;28;20383;-77
2021/08/07 00:35:20;;;;;;;3.13;1.10;;;16.80;83.30;;;;;;5086010;28;20402;-78
2021/08/07 00:37:45;;;;;;;3.83;1.33;;;16.70;83.50;;;;;;5052474;28;20411;-79
2021/08/07 00:40:11;;;;;;;3.60;1.25;;;16.80;83.30;;;;;;5071479;28;20397;-77
2021/08/07 00:42:37;;;;;;;4.25;1.20;;;16.70;83.50;;;;;;5089809;28;20402;-76
2021/08/07 00:45:04;;;;;;;3.80;1.00;;;16.70;83.20;;;;;;5074278;28;20387;-77
2021/08/07 00:47:29;;;;;;;2.40;1.27;;;16.70;83.30;;;;;;5074109;28;20364;-78
2021/08/07 00:49:55;;;;;;;5.72;1.38;;;16.70;83.20;;;;;;5089675;28;20409;-76
2021/08/07 00:52:20;;;;;;;3.87;1.97;;;16.70;83.40;;;;;;5073741;28;20372;-77
2021/08/07 00:54:46;;;;;;;4.50;1.27;;;16.70;83.60;;;;;;5089464;28;20387;-79
2021/08/07 00:57:12;;;;;;;1.80;1.02;;;16.70;83.40;;;;;;5073849;28;20470;-78
2021/08/07 00:59:38;;;;;;;2.40;1.20;;;16.70;83.60;;;;;;5073711;28;20376;-78
2021/08/07 01:02:11;;;;;;;2.65;1.20;;;16.70;83.50;;;;;;5055724;28;20393;-80
2021/08/07 01:04:42;;;;;;;3.85;1.30;;;16.70;83.50;;;;;;5073859;28;20376;-78
2021/08/07 01:07:20;;;;;;;2.25;1.20;;;16.70;83.50;;;;;;5055956;28;20974;-76
2021/08/07 01:10:07;;;;;;;2.83;1.10;;;16.70;83.60;;;;;;5073682;28;20860;-77
2021/08/07 01:12:54;;;;;;;5.35;1.20;;;16.70;83.50;;;;;;5055881;28;20391;-76
2021/08/07 01:15:23;;;;;;;1.88;1.30;;;16.70;83.90;;;;;;5073638;28;20429;-77
2021/08/07 01:17:52;;;;;;;3.45;1.40;;;16.70;83.90;;;;;;5073552;28;20414;-76
2021/08/07 01:20:25;;;;;;;3.90;1.30;;;16.70;83.70;;;;;;5073528;28;20437;-78
2021/08/07 01:23:11;;;;;;;2.50;1.20;;;16.60;83.70;;;;;;5055462;28;20386;-80
2021/08/07 01:26:14;;;;;;;2.30;1.20;;;16.70;84.20;;;;;;5055412;28;20395;-77
2021/08/07 01:28:42;;;;;;;2.83;1.15;;;16.60;84.00;;;;;;5073257;28;20364;-78
2021/08/07 01:31:10;;;;;;;3.97;1.20;;;16.60;83.90;;;;;;5055404;28;20720;-77
2021/08/07 01:33:36;;;;;;;2.20;1.20;;;16.60;84.10;;;;;;5055282;28;20391;-79
2021/08/07 01:36:03;;;;;;;1.50;1.20;;;16.60;84.10;;;;;;5088956;28;20426;-80
2021/08/07 01:38:29;;;;;;;2.67;1.10;;;16.50;84.10;;;;;;5073126;28;20398;-78
2021/08/07 01:40:55;;;;;;;6.13;1.20;;;16.50;84.40;;;;;;5073217;28;20372;-77
2021/08/07 01:43:21;;;;;;;7.70;1.50;;;16.40;84.70;;;;;;5073088;28;20379;-81
2021/08/07 01:45:47;;;;;;;3.08;1.30;;;16.40;84.60;;;;;;5055079;28;20394;-77
2021/08/07 01:48:39;;;;;;;3.83;1.20;;;16.40;84.40;;;;;;5072926;28;20865;-77
2021/08/07 01:51:14;;;;;;;4.35;1.30;;;16.40;84.70;;;;;;5072616;28;20775;-78
2021/08/07 01:53:41;;;;;;;2.92;1.10;;;16.40;84.40;;;;;;5072001;28;20444;-81
2021/08/07 01:56:28;;;;;;;3.00;1.20;;;16.50;84.30;;;;;;5072854;28;20392;-76
2021/08/07 01:59:03;;;;;;;4.55;1.15;;;16.40;84.30;;;;;;5073107;28;20383;-76
2021/08/07 02:01:30;;;;;;;2.10;1.23;;;16.40;84.80;;;;;;5088606;28;20441;-76
2021/08/07 02:04:00;;;;;;;1.90;1.30;;;16.40;84.40;;;;;;5072518;28;20463;-78
2021/08/07 02:06:26;;;;;;;2.78;1.17;;;16.40;84.40;;;;;;5072726;28;20386;-76
2021/08/07 02:08:53;;;;;;;2.33;1.20;;;16.40;84.50;;;;;;5054621;28;20429;-77
2021/08/07 02:11:20;;;;;;;7.03;1.20;;;16.40;84.60;;;;;;5072595;28;20372;-76
2021/08/07 02:13:47;;;;;;;4.97;1.20;;;16.30;84.50;;;;;;5072549;28;20387;-77
2021/08/07 02:16:13;;;;;;;4.30;1.13;;;16.40;84.60;;;;;;5054441;28;20482;-78
2021/08/07 02:18:41;;;;;;;4.77;1.57;;;16.40;84.60;;;;;;5087976;28;20666;-78
2021/08/07 02:21:07;;;;;;;2.20;1.10;;;16.40;84.90;;;;;;5072521;28;20424;-77
2021/08/07 02:23:33;;;;;;;1.52;1.30;;;16.30;84.90;;;;;;5054397;28;20760;-77
2021/08/07 02:26:01;;;;;;;2.55;1.38;;;16.30;84.60;;;;;;5072404;28;20426;-77
2021/08/07 02:28:28;;;;;;;3.90;1.35;;;16.30;84.90;;;;;;5054080;28;20939;-79
2021/08/07 02:30:55;;;;;;;4.40;1.23;;;16.30;84.70;;;;;;5072000;28;20428;-77
2021/08/07 02:33:22;;;;;;;4.35;1.10;;;16.30;84.80;;;;;;5072030;28;20412;-78
2021/08/07 02:35:52;;;;;;;2.05;1.23;;;16.30;84.80;;;;;;5053845;28;20431;-77
2021/08/07 02:38:18;;;;;;;3.13;1.17;;;16.20;85.10;;;;;;5071668;28;20853;-77
2021/08/07 02:40:44;;;;;;;5.93;1.40;;;16.30;84.80;;;;;;5072018;28;20425;-77
2021/08/07 02:43:11;;;;;;;3.07;1.23;;;16.30;84.90;;;;;;5053846;28;20384;-77
2021/08/07 02:45:37;;;;;;;2.53;1.10;;;16.30;84.40;;;;;;5053970;28;20388;-77
2021/08/07 02:48:03;;;;;;;4.55;1.33;;;16.20;84.80;;;;;;5053972;28;20384;-76
2021/08/07 02:50:29;;;;;;;2.13;1.08;;;16.20;84.50;;;;;;5053798;28;20402;-76
2021/08/07 02:52:56;;;;;;;4.95;1.42;;;16.30;84.50;;;;;;5087416;28;20392;-77
2021/08/07 02:55:22;;;;;;;8.10;2.50;;;16.20;84.40;;;;;;5053749;28;20404;-77
2021/08/07 02:57:51;;;;;;;3.00;1.10;;;16.30;84.40;;;;;;5071671;28;20769;-79
2021/08/07 03:00:18;;;;;;;2.65;1.30;;;16.30;84.30;;;;;;5053959;28;20386;-76
2021/08/07 03:02:44;;;;;;;2.45;1.42;;;16.30;84.50;;;;;;5071534;28;20404;-79
2021/08/07 03:05:10;;;;;;;2.75;1.35;;;16.20;84.60;;;;;;5087261;28;20426;-76
2021/08/07 03:07:35;;;;;;;3.05;1.17;;;16.20;84.40;;;;;;5053984;28;20413;-77
2021/08/07 03:10:03;;;;;;;3.13;1.30;;;16.20;84.50;;;;;;5071493;28;20391;-77
2021/08/07 03:12:29;;;;;;;3.85;1.35;;;16.10;84.80;;;;;;5071427;28;20462;-76
2021/08/07 03:14:54;;;;;;;2.47;1.27;;;16.10;84.80;;;;;;5071347;28;20923;-77
2021/08/07 03:17:20;;;;;;;3.63;1.10;;;16.10;84.90;;;;;;5086621;28;20391;-82
2021/08/07 03:19:45;;;;;;;2.30;1.10;;;16.00;84.80;;;;;;5071371;28;20368;-77
2021/08/07 03:22:12;;;;;;;2.10;1.10;;;16.00;84.80;;;;;;5071222;28;20515;-76
2021/08/07 03:24:38;;;;;;;4.45;1.23;;;16.00;84.60;;;;;;5071402;28;20437;-76
2021/08/07 03:27:03;;;;;;;4.57;1.52;;;16.00;84.70;;;;;;5071213;28;20642;-76
2021/08/07 03:29:29;;;;;;;2.53;1.23;;;16.10;84.80;;;;;;5071460;28;20371;-77
2021/08/07 03:31:55;;;;;;;3.40;1.20;;;16.10;84.70;;;;;;5071256;28;20822;-78
2021/08/07 03:34:20;;;;;;;2.35;1.25;;;16.10;84.60;;;;;;5087028;28;20943;-76
2021/08/07 03:36:46;;;;;;;4.37;1.40;;;16.00;84.80;;;;;;5071176;28;21070;-77
2021/08/07 03:39:11;;;;;;;5.60;1.40;;;16.10;84.80;;;;;;5070773;28;20445;-77
2021/08/07 03:41:37;;;;;;;2.40;1.43;;;16.10;84.50;;;;;;5071148;28;20417;-79
2021/08/07 03:44:02;;;;;;;1.73;1.23;;;16.00;84.50;;;;;;5071161;28;20383;-77
2021/08/07 03:46:28;;;;;;;3.38;1.30;;;16.00;84.50;;;;;;5070904;28;20764;-76
2021/08/07 03:48:53;;;;;;;1.53;1.20;;;16.00;84.70;;;;;;5071284;28;20379;-77
2021/08/07 03:51:19;;;;;;;3.13;1.25;;;15.90;85.10;;;;;;5052910;28;20460;-80
2021/08/07 03:53:44;;;;;;;4.77;1.33;;;15.90;85.00;;;;;;5086188;28;20429;-76
2021/08/07 03:56:10;;;;;;;1.83;1.40;;;15.80;85.30;;;;;;5070836;28;20403;-77
2021/08/07 03:58:35;;;;;;;4.85;1.45;;;15.80;85.30;;;;;;5070875;28;20379;-77
2021/08/07 04:01:01;;;;;;;4.60;1.40;;;15.80;85.60;;;;;;5070610;28;20390;-77
2021/08/07 04:03:27;;;;;;;2.25;1.40;;;15.70;85.50;;;;;;5070878;28;20406;-77
2021/08/07 04:05:52;;;;;;;6.23;1.30;;;15.80;85.30;;;;;;5070864;28;20908;-76
2021/08/07 04:08:18;;;;;;;3.93;1.53;;;15.70;85.20;;;;;;5086318;28;20392;-77
2021/08/07 04:10:43;;;;;;;4.70;1.60;;;15.70;85.20;;;;;;5086091;28;20863;-81
2021/08/07 04:13:09;;;;;;;2.00;1.20;;;15.70;85.40;;;;;;5070589;28;20779;-77
2021/08/07 04:15:34;;;;;;;1.77;1.30;;;15.60;85.60;;;;;;5054051;28;20701;-80
2021/08/07 04:18:00;;;;;;;4.22;1.40;;;15.60;85.50;;;;;;5074756;28;20371;-78
2021/08/07 04:20:25;;;;;;;1.97;1.20;;;15.60;85.50;;;;;;5090190;28;20380;-80
2021/08/07 04:22:51;;;;;;;3.47;1.60;;;15.60;85.50;;;;;;5074669;28;20376;-76
2021/08/07 04:25:17;;;;;;;2.90;1.40;;;15.60;85.60;;;;;;5074687;28;20825;-77
2021/08/07 04:27:43;;;;;;;3.70;1.45;;;15.70;85.80;;;;;;5090121;28;20388;-78
2021/08/07 04:30:10;;;;;;;3.38;1.65;;;15.70;85.80;;;;;;5074260;28;20702;-77
2021/08/07 04:32:36;;;;;;;1.70;1.20;;;15.60;85.80;;;;;;5074516;28;20379;-79
2021/08/07 04:35:01;;;;;;;3.72;1.73;;;15.60;85.70;;;;;;5074315;28;20383;-79
2021/08/07 04:37:27;;;;;;;3.33;1.30;;;15.70;85.60;;;;;;5074498;28;20875;-76
2021/08/07 04:39:52;;;;;;;4.00;1.50;;;15.70;85.50;;;;;;5056180;28;20380;-78
2021/08/07 04:42:18;;;;;;;4.23;1.30;;;15.70;85.40;;;;;;5074374;28;20713;-78
2021/08/07 04:44:44;;;;;;;3.53;1.47;;;15.80;85.60;;;;;;5089840;28;20403;-82
2021/08/07 04:47:09;;;;;;;3.37;1.20;;;15.80;85.30;;;;;;5074521;28;20685;-76
2021/08/07 04:49:36;;;;;;;2.92;1.23;;;15.80;85.40;;;;;;5074218;28;20420;-76
2021/08/07 04:52:02;;;;;;;2.05;1.30;;;15.80;85.70;;;;;;5089546;28;20874;-76
2021/08/07 04:54:28;;;;;;;2.97;1.30;;;15.80;85.50;;;;;;5074010;28;20372;-76
2021/08/07 04:56:53;;;;;;;3.57;1.30;;;15.80;85.50;;;;;;5074411;28;20406;-77
2021/08/07 04:59:19;;;;;;;2.72;1.60;;;15.80;85.40;;;;;;5074224;28;20490;-78
2021/08/07 05:01:45;;;;;;;2.30;1.23;;;15.80;85.40;;;;;;5073861;28;20386;-76
2021/08/07 05:04:12;;;;;;;3.53;1.23;;;15.80;85.30;;;;;;5089566;28;20433;-78
2021/08/07 05:06:37;;;;;;;3.22;1.42;;;15.80;85.30;;;;;;5073836;28;20387;-77
2021/08/07 05:09:04;;;;;;;1.77;1.00;;;15.90;85.40;;;;;;5073879;28;20920;-78
2021/08/07 05:11:29;;;;;;;7.22;1.02;;;15.90;85.30;;;;;;5089291;28;20427;-81
2021/08/07 05:13:55;;;;;;;4.30;1.40;;;15.90;85.30;;;;;;5073876;28;20463;-77
2021/08/07 05:16:20;;;;;;;3.77;1.27;;;15.90;85.60;;;;;;5089221;28;20907;-77
2021/08/07 05:18:46;;;;;;;3.92;1.25;;;15.90;85.60;;;;;;5073612;28;20376;-77
2021/08/07 05:21:12;;;;;;;2.67;1.17;;;15.90;85.30;;;;;;5073434;28;20379;-76
2021/08/07 05:23:37;;;;;;;2.93;1.27;;;15.90;85.30;;;;;;5073437;28;20372;-79
2021/08/07 05:26:03;;;;;;;3.85;1.10;;;15.90;85.30;;;;;;5055230;28;20558;-77
2021/08/07 05:28:28;;;;;;;2.20;1.03;;;16.00;85.80;;;;;;5054387;28;20387;-76
2021/08/07 05:30:54;;;;;;;2.00;1.13;;;16.00;85.30;;;;;;5073278;28;20894;-77
2021/08/07 05:33:19;;;;;;;2.05;1.05;;;16.00;85.20;;;;;;5073318;28;20454;-78
2021/08/07 05:35:45;;;;;;;3.90;1.30;;;16.00;85.10;;;;;;5073040;28;20395;-77
2021/08/07 05:38:10;;;;;;;1.23;1.10;;;16.10;85.20;;;;;;5055172;28;20435;-75
2021/08/07 05:40:36;;;;;;;2.60;1.20;;;16.10;85.30;;;;;;5072956;28;20388;-78
2021/08/07 05:43:01;;;;;;;1.53;1.10;;;16.10;85.30;;;;;;5055196;28;20392;-76
2021/08/07 05:45:27;;;;;;;4.63;1.08;;;16.10;85.20;;;;;;5072700;28;20470;-77
2021/08/07 05:47:52;;;;;;;4.63;1.90;;;16.10;85.10;;;;;;5088617;28;20395;-77
2021/08/07 05:50:18;;;;;;;5.35;1.10;;;16.10;85.20;;;;;;5072658;28;20458;-76
2021/08/07 05:52:43;;;;;;;3.93;1.13;;;16.10;85.20;;;;;;5072887;28;20708;-77
2021/08/07 05:55:09;;;;;;;3.47;1.00;;;16.20;85.20;;;;;;5072779;28;20403;-78
2021/08/07 05:57:35;;;;;;;7.10;1.38;;;16.20;85.10;;;;;;5055050;28;20755;-79
2021/08/07 06:00:02;;;;;;;4.00;1.30;;;16.20;85.00;;;;;;5072739;28;20383;-79
2021/08/07 06:02:32;;;;;;;2.17;1.30;;;16.20;85.20;;;;;;5072668;28;20375;-77
2021/08/07 06:04:58;;;;;;;4.15;1.17;;;16.20;85.30;;;;;;5072653;28;20379;-77
2021/08/07 06:07:23;;;;;;;3.70;1.15;;;16.20;84.90;;;;;;5054578;28;20388;-79
2021/08/07 06:09:49;;;;;;;3.50;1.20;;;16.20;85.20;;;;;;5072618;28;20912;-79
2021/08/07 06:12:14;;;;;;;4.88;1.13;;;16.20;85.20;;;;;;5072479;28;20380;-76
2021/08/07 06:14:40;;;;;;;4.03;0.93;;;16.20;84.90;;;;;;5054559;28;20372;-78
2021/08/07 06:17:06;;;;;;;3.83;1.10;;;16.30;84.90;;;;;;5072244;28;20979;-80
2021/08/07 06:19:32;;;;;;;7.68;1.38;;;16.30;85.00;;;;;;5054625;28;20851;-77
2021/08/07 06:21:57;;;;;;;2.90;1.30;;;16.30;85.00;;;;;;5072237;28;20467;-80
2021/08/07 06:24:23;;;;;;;4.97;1.23;;;16.30;85.00;;;;;;5072077;28;20394;-76
2021/08/07 06:26:48;;;;;;;5.27;1.60;;;16.40;85.00;;;;;;5072136;28;20384;-77
2021/08/07 06:29:14;;;;;;;2.13;1.00;;;16.40;85.10;;;;;;5087780;28;20435;-77
2021/08/07 06:31:39;;;;;;;3.90;1.48;;;16.50;85.00;;;;;;5054154;28;20386;-77
2021/08/07 06:34:05;;;;;;;5.33;1.60;;;16.50;84.80;;;;;;5072200;28;21072;-77
2021/08/07 06:36:32;;;;;;;2.13;1.00;;;16.50;84.60;;;;;;5071634;28;20427;-79
2021/08/07 06:38:58;;;;;;;2.83;1.17;;;16.60;84.60;;;;;;5071566;28;20434;-79
2021/08/07 06:41:23;;;;;;;3.70;1.40;;;16.60;84.30;;;;;;5087505;28;20867;-77
2021/08/07 06:43:49;;;;;;;5.77;1.30;;;16.60;84.30;;;;;;5071930;28;20796;-76
2021/08/07 06:46:14;;;;;;;5.07;1.13;;;16.60;84.70;;;;;;5087453;28;20501;-76
2021/08/07 06:48:40;;;;;;;3.87;1.30;;;16.70;84.40;;;;;;5087632;28;20384;-80
2021/08/07 06:51:06;;;;;;;3.30;1.00;;;16.70;84.20;;;;;;5053780;28;20394;-79
2021/08/07 06:53:32;;;;;;;5.40;1.20;;;16.80;83.90;;;;;;5071758;28;20492;-76
2021/08/07 06:55:57;;;;;;;5.25;1.55;;;16.90;84.10;;;;;;5087105;28;20407;-76
2021/08/07 06:58:23;;;;;;;8.45;1.08;;;16.90;83.70;;;;;;5071661;28;20380;-79
2021/08/07 07:00:48;;;;;;;3.57;1.20;;;16.90;83.90;;;;;;5053759;28;20411;-77
2021/08/07 07:03:14;;;;;;;4.53;1.30;;;17.00;82.60;;;;;;5087066;28;20388;-81
2021/08/07 07:05:39;;;;;;;2.90;1.07;;;17.00;83.60;;;;;;5053671;28;20384;-76
2021/08/07 07:08:05;;;;;;;3.50;1.13;;;17.10;84.10;;;;;;5053645;28;20387;-77
2021/08/07 07:10:31;;;;;;;5.90;1.30;;;17.00;82.90;;;;;;5053504;28;20380;-79
2021/08/07 07:12:57;;;;;;;2.30;0.93;;;17.00;83.20;;;;;;5071255;28;20375;-82
2021/08/07 07:15:23;;;;;;;4.00;1.10;;;17.10;83.90;;;;;;5071352;28;20413;-79
2021/08/07 07:17:49;;;;;;;5.97;1.08;;;17.20;83.40;;;;;;5071311;28;20833;-78
2021/08/07 07:20:15;;;;;;;5.05;1.17;;;17.20;83.80;;;;;;5053473;28;20419;-78
2021/08/07 07:22:40;;;;;;;2.53;1.35;;;17.10;82.80;;;;;;5071386;28;20372;-77
2021/08/07 07:25:10;;;;;;;6.27;1.80;;;17.10;83.20;;;;;;5071521;28;20386;-76
2021/08/07 07:27:36;;;;;;;5.97;1.10;;;17.10;83.10;;;;;;5053284;28;20701;-76
2021/08/07 07:30:02;;;;;;;6.25;1.27;;;17.00;84.00;;;;;;5071429;28;20914;-78
2021/08/07 07:32:28;;;;;;;8.50;1.50;;;17.00;84.30;;;;;;5053364;28;20463;-73
2021/08/07 07:34:53;;;;;;;7.00;2.38;;;16.80;86.40;;;;;;5071190;28;20451;-77
2021/08/07 07:37:19;;;;;;;5.03;2.00;;;16.60;88.10;;;;;;5086689;28;20801;-73
2021/08/07 07:39:44;;;;;;;4.78;1.60;;;16.30;89.60;;;;;;5071044;28;20826;-73
2021/08/07 07:42:10;;;;;;;4.97;1.50;;;16.40;89.40;;;;;;5070875;28;20718;-73
2021/08/07 07:44:36;;;;;;;6.25;1.70;;;16.40;89.90;;;;;;5053078;28;20405;-74
2021/08/07 07:47:02;;;;;;;6.47;2.00;;;16.40;90.20;;;;;;5070821;28;20372;-75
2021/08/07 07:49:27;;;;;;;8.17;1.90;;;16.40;90.50;;;;;;5070328;28;20433;-76
2021/08/07 07:51:53;;;;;;;3.67;1.60;;;16.40;90.70;;;;;;5052616;28;20383;-74
2021/08/07 07:54:18;;;;;;;8.40;1.90;;;16.40;91.00;;;;;;5070803;28;20380;-74
2021/08/07 07:56:44;;;;;;;5.30;1.80;;;16.40;90.80;;;;;;5052362;28;20403;-74
2021/08/07 07:59:09;;;;;;;7.00;1.98;;;16.40;91.20;;;;;;5086252;28;20407;-77
2021/08/07 08:01:35;;;;;;;5.43;2.43;;;16.40;91.70;;;;;;5052402;28;20402;-74
2021/08/07 08:04:00;;;;;;;5.95;2.17;;;16.60;91.80;;;;;;5070550;28;20724;-74
2021/08/07 08:06:26;;;;;;;4.20;1.93;;;16.70;91.80;;;;;;5052571;28;20376;-74
2021/08/07 08:08:51;;;;;;;6.43;2.00;;;16.60;91.40;;;;;;5052424;28;20466;-77
2021/08/07 08:11:17;;;;;;;7.18;2.10;;;16.80;91.60;;;;;;5070395;28;20395;-74
2021/08/07 08:13:43;;;;;;;3.57;2.07;;;16.80;91.50;;;;;;5070486;28;20463;-74
2021/08/07 08:16:08;;;;;;;10.73;2.83;;;16.80;91.40;;;;;;5070463;28;20469;-77
2021/08/07 08:18:34;;;;;;;7.07;2.13;;;16.80;91.40;;;;;;5070555;28;20469;-76
2021/08/07 08:21:00;;;;;;;4.85;1.98;;;16.80;91.20;;;;;;5070509;28;20415;-77
2021/08/07 08:23:26;;;;;;;8.07;2.00;;;17.00;91.30;;;;;;5070658;28;20383;-76
2021/08/07 08:25:52;;;;;;;4.68;2.30;;;17.00;91.30;;;;;;5085970;28;20466;-75
2021/08/07 08:28:18;;;;;;;6.00;2.20;;;17.20;91.80;;;;;;5070427;28;20669;-78
2021/08/07 08:30:44;;;;;;;6.57;2.10;;;17.30;91.50;;;;;;5070540;28;20379;-75
2021/08/07 08:33:09;;;;;;;6.18;2.00;;;17.30;91.50;;;;;;5070391;28;20794;-74
2021/08/07 08:35:35;;;;;;;5.47;2.23;;;17.40;91.00;;;;;;5085863;28;20744;-76
2021/08/07 08:38:01;;;;;;;5.30;3.00;;;17.50;90.50;;;;;;5052434;28;20405;-77
2021/08/07 08:40:26;;;;;;;5.13;2.03;;;17.40;89.70;;;;;;5070550;28;20403;-77
2021/08/07 08:42:52;;;;;;;7.50;1.90;;;17.30;89.80;;;;;;5070348;28;20394;-77
2021/08/07 08:45:18;;;;;;;3.63;1.80;;;17.40;90.30;;;;;;5070325;28;20386;-76
2021/08/07 08:47:44;;;;;;;6.13;2.15;;;17.70;90.50;;;;;;5070223;28;20686;-77
2021/08/07 08:50:11;;;;;;;5.22;1.90;;;17.50;88.50;;;;;;5070610;28;20375;-77
2021/08/07 08:52:39;;;;;;;5.45;1.95;;;17.60;89.50;;;;;;5070217;28;20547;-77
2021/08/07 08:55:07;;;;;;;5.68;2.08;;;17.80;90.30;;;;;;5052159;28;20887;-76
2021/08/07 08:57:32;;;;;;;5.07;2.00;;;17.90;89.80;;;;;;5070289;28;20372;-76
2021/08/07 08:59:58;;;;;;;5.47;1.90;;;17.80;90.00;;;;;;5069983;28;20864;-77
2021/08/07 09:02:24;;;;;;;6.67;2.10;;;17.80;89.20;;;;;;5072851;28;20859;-79
2021/08/07 09:04:49;;;;;;;8.13;1.90;;;17.80;90.30;;;;;;5074012;28;20387;-78
2021/08/07 09:07:16;;;;;;;6.28;2.22;;;17.70;88.40;;;;;;5073842;28;20856;-80
2021/08/07 09:09:45;;;;;;;4.53;2.03;;;17.70;89.20;;;;;;5055635;28;20384;-78
2021/08/07 09:12:12;;;;;;;6.63;2.10;;;17.90;88.90;;;;;;5055833;28;20388;-80
2021/08/07 09:14:41;;;;;;;6.90;2.50;;;17.90;88.90;;;;;;5089404;28;20383;-77
2021/08/07 09:17:15;;;;;;;9.02;2.58;;;17.90;88.20;;;;;;5055654;28;20400;-77
2021/08/07 09:19:41;;;;;;;4.15;1.77;;;18.30;88.40;;;;;;5074075;28;20471;-79
2021/08/07 09:22:08;;;;;;;5.35;2.00;;;18.40;87.40;;;;;;5073283;28;20521;-80
2021/08/07 09:24:52;;;;;;;5.27;2.20;;;18.30;86.10;;;;;;5073769;28;20767;-77
2021/08/07 09:27:30;;;;;;;5.65;1.80;;;18.80;88.90;;;;;;5089087;28;20426;-78
2021/08/07 09:29:56;;;;;;;7.97;1.63;;;18.70;87.40;;;;;;5073423;28;20460;-78
2021/08/07 09:32:22;;;;;;;4.27;1.80;;;18.40;86.50;;;;;;5088988;28;20954;-78
2021/08/07 09:35:05;;;;;;;8.27;1.83;;;18.40;86.90;;;;;;5088848;28;20845;-80
2021/08/07 09:37:30;;;;;;;4.25;1.70;;;18.40;86.40;;;;;;5054946;28;20388;-82
2021/08/07 09:40:00;;;;;;;7.53;1.98;;;18.60;85.50;;;;;;5055123;28;20403;-78
2021/08/07 09:42:28;;;;;;;6.25;1.45;;;18.80;85.70;;;;;;5088866;28;20860;-78
2021/08/07 09:45:10;;;;;;;4.20;1.42;;;18.80;83.40;;;;;;5088741;28;20465;-80
2021/08/07 09:47:56;;;;;;;3.78;1.40;;;18.90;84.30;;;;;;5055195;28;20725;-78
2021/08/07 09:50:23;;;;;;;6.43;1.63;;;19.30;85.20;;;;;;5073232;28;20380;-83
2021/08/07 09:52:49;;;;;;;5.15;1.40;;;19.20;84.70;;;;;;5073052;28;20371;-77
2021/08/07 09:55:15;;;;;;;5.32;1.58;;;19.00;83.60;;;;;;5055089;28;20384;-78
2021/08/07 09:57:40;;;;;;;4.45;1.30;;;18.90;83.00;;;;;;5055000;28;20736;-78
2021/08/07 10:00:07;;;;;;;3.67;1.40;;;18.90;83.20;;;;;;5055013;28;20421;-79
2021/08/07 10:02:36;;;;;;;5.80;1.73;;;18.80;83.70;;;;;;5088494;28;20415;-78
2021/08/07 10:05:03;;;;;;;7.90;1.52;;;18.70;83.40;;;;;;5072830;28;20383;-80
2021/08/07 10:07:29;;;;;;;7.93;1.80;;;18.50;82.50;;;;;;5072994;28;20378;-78
2021/08/07 10:09:55;;;;;;;4.37;1.60;;;18.50;83.30;;;;;;5072969;28;20852;-78
2021/08/07 10:12:21;;;;;;;3.43;1.50;;;18.40;83.60;;;;;;5072357;28;20364;-78
2021/08/07 10:14:48;;;;;;;2.80;1.40;;;18.40;82.60;;;;;;5071958;28;20375;-78
2021/08/07 10:17:17;;;;;;;4.75;1.48;;;18.40;83.60;;;;;;5054734;28;20449;-80
2021/08/07 10:19:45;;;;;;;3.55;1.40;;;18.40;83.10;;;;;;5072607;28;20433;-78
2021/08/07 10:22:13;;;;;;;4.30;1.70;;;18.40;83.70;;;;;;5054669;28;20426;-78
2021/08/07 10:24:41;;;;;;;3.30;1.30;;;18.60;84.00;;;;;;5054619;28;20851;-78
2021/08/07 10:27:08;;;;;;;6.03;1.70;;;18.50;83.60;;;;;;5072536;28;20379;-77
2021/08/07 10:29:52;;;;;;;4.22;1.48;;;18.60;83.30;;;;;;5072573;28;20376;-78
2021/08/07 10:32:20;;;;;;;8.00;1.67;;;18.60;83.60;;;;;;5072446;28;20383;-79
2021/08/07 10:34:53;;;;;;;10.30;2.40;;;18.60;83.90;;;;;;5072448;28;20395;-79
2021/08/07 10:37:19;;;;;;;8.32;1.55;;;18.80;83.80;;;;;;5072469;28;20403;-83
2021/08/07 10:39:47;;;;;;;5.53;1.65;;;19.00;83.30;;;;;;5072176;28;20404;-80
2021/08/07 10:42:15;;;;;;;4.13;1.38;;;19.30;84.20;;;;;;5072458;28;20380;-80
2021/08/07 10:44:44;;;;;;;5.63;1.55;;;19.70;80.50;;;;;;5054343;28;20376;-77
2021/08/07 10:47:09;;;;;;;9.23;1.38;;;19.80;79.50;;;;;;5054203;28;20391;-79
2021/08/07 10:49:40;;;;;;;4.40;1.43;;;19.90;76.60;;;;;;5072284;28;20840;-81
2021/08/07 10:52:21;;;;;;;2.60;1.40;;;19.80;78.70;;;;;;5072102;28;20390;-79
2021/08/07 10:54:48;;;;;;;5.18;1.50;;;19.50;79.50;;;;;;5071612;28;20448;-83
2021/08/07 10:57:36;;;;;;;4.78;1.50;;;19.40;78.30;;;;;;5071901;28;20853;-80
2021/08/07 11:00:22;;;;;;;3.05;1.58;;;19.30;76.60;;;;;;5087445;28;20392;-78
2021/08/07 11:02:48;;;;;;;6.30;2.00;;;19.20;77.10;;;;;;5071795;28;20372;-79
2021/08/07 11:05:15;;;;;;;3.00;1.00;;;19.00;77.40;;;;;;5053796;28;20449;-78
2021/08/07 11:07:41;;;;;;;4.15;1.50;;;19.10;79.00;;;;;;5087488;28;20380;-78
2021/08/07 11:10:11;;;;;;;3.97;1.50;;;19.40;79.40;;;;;;5071650;28;20380;-78
2021/08/07 11:12:45;;;;;;;5.43;1.42;;;19.80;79.80;;;;;;5087549;28;20876;-77
2021/08/07 11:15:31;;;;;;;3.92;1.15;;;20.10;75.10;;;;;;5071526;28;20418;-78
2021/08/07 11:17:57;;;;;;;6.22;1.50;;;20.00;76.20;;;;;;5071510;28;20442;-79
2021/08/07 11:20:38;;;;;;;2.72;1.20;;;19.70;75.10;;;;;;5087016;28;20849;-78
2021/08/07 11:23:05;;;;;;;6.00;1.30;;;19.90;77.40;;;;;;5071303;28;20709;-81
2021/08/07 11:25:46;;;;;;;3.67;1.10;;;20.10;77.40;;;;;;5071282;28;20463;-78
2021/08/07 11:28:12;;;;;;;4.40;1.13;;;19.80;75.60;;;;;;5071076;28;20458;-79
2021/08/07 11:30:41;;;;;;;4.70;1.05;;;19.60;74.30;;;;;;5070960;28;20471;-79
2021/08/07 11:33:09;;;;;;;3.42;1.33;;;19.60;75.60;;;;;;5071204;28;20375;-78
2021/08/07 11:35:38;;;;;;;3.70;1.40;;;19.50;72.60;;;;;;5070996;28;20460;-78
2021/08/07 11:38:10;;;;;;;5.15;1.10;;;19.40;75.80;;;;;;5086793;28;20404;-78
2021/08/07 11:40:45;;;;;;;5.05;1.20;;;19.30;74.50;;;;;;5071011;28;20407;-78
2021/08/07 11:43:21;;;;;;;4.80;1.10;;;19.40;75.30;;;;;;5086786;28;20455;-78
2021/08/07 11:46:08;;;;;;;4.32;1.10;;;19.30;75.00;;;;;;5053014;28;20395;-78
2021/08/07 11:48:44;;;;;;;3.88;1.20;;;19.40;76.20;;;;;;5070900;28;20379;-78
2021/08/07 11:51:24;;;;;;;3.05;1.10;;;19.30;76.40;;;;;;5071374;28;20457;-79
2021/08/07 11:53:49;;;;;;;4.10;1.27;;;19.30;77.10;;;;;;5052969;28;20535;-77
2021/08/07 11:56:20;;;;;;;5.03;1.10;;;19.40;78.30;;;;;;5052849;28;20403;-78
2021/08/07 11:58:48;;;;;;;3.38;1.02;;;19.70;77.40;;;;;;5070901;28;20871;-80
2021/08/07 12:01:15;;;;;;;5.07;1.13;;;19.70;75.40;;;;;;5052773;28;20383;-82
2021/08/07 12:03:43;;;;;;;4.53;1.05;;;19.40;74.50;;;;;;5052833;28;20388;-79
2021/08/07 12:06:09;;;;;;;3.70;1.38;;;19.30;75.60;;;;;;5053029;28;20396;-79
2021/08/07 12:08:36;;;;;;;4.70;1.30;;;19.40;77.60;;;;;;5070781;28;20907;-79
2021/08/07 12:11:08;;;;;;;5.90;1.13;;;19.30;76.20;;;;;;5052664;28;20733;-79
2021/08/07 12:13:37;;;;;;;4.38;1.20;;;19.30;77.60;;;;;;5086332;28;20384;-79
2021/08/07 12:16:12;;;;;;;8.77;1.23;;;19.30;76.30;;;;;;5070802;28;20502;-77
2021/08/07 12:18:54;;;;;;;4.63;1.70;;;19.30;76.20;;;;;;5086249;28;20387;-79
2021/08/07 12:21:35;;;;;;;5.20;1.38;;;19.30;74.50;;;;;;5070312;28;20376;-81
2021/08/07 12:24:09;;;;;;;7.38;1.42;;;19.40;73.50;;;;;;5070778;28;20388;-78
2021/08/07 12:26:43;;;;;;;3.55;1.00;;;19.50;75.90;;;;;;5052591;28;20728;-78
2021/08/07 12:29:15;;;;;;;4.88;1.35;;;19.40;74.00;;;;;;5086166;28;20749;-78
2021/08/07 12:31:40;;;;;;;3.63;1.20;;;19.30;75.00;;;;;;5052539;28;20408;-77
2021/08/07 12:34:18;;;;;;;5.78;1.05;;;19.20;73.50;;;;;;5070503;28;20883;-77
2021/08/07 12:36:57;;;;;;;2.40;0.98;;;19.30;75.60;;;;;;5071847;28;20816;-79
2021/08/07 12:39:23;;;;;;;5.40;1.40;;;19.40;74.60;;;;;;5089909;28;20938;-75
2021/08/07 12:41:50;;;;;;;4.75;0.90;;;19.70;73.00;;;;;;5073962;28;20844;-78
2021/08/07 12:44:34;;;;;;;4.57;1.40;;;20.00;69.40;;;;;;5090084;28;20388;-78
2021/08/07 12:47:00;;;;;;;3.65;0.98;;;20.20;72.60;;;;;;5074292;28;20474;-79
2021/08/07 12:49:33;;;;;;;3.70;0.90;;;20.30;69.80;;;;;;5056220;28;20819;-75